Hermann, MO

9:49 AM CST on March 01, 2015 (GMT -0600)
St. George | Change Station
CLOSE
Current Station
Personal Weather Station
Location: Hermann, MO
Elevation: 572 ft
Nearby Weather Stations
Active Advisory: Winter Storm Warning Active Notice: Local Storm Report

Elev 572 ft 38.70 °N, 91.44 °W | Updated 7 seconds ago

Overcast
Overcast
31.1 °F
Feels Like 31 °F
N
2.2
Wind Variable Wind from NW
Gusts 2.2 mph

Today
High -- | Low -- °F
--% Chance of Precip.
Yesterday
High -- | Low -- °F
Precip. -- in
6:38 AM 5:58 PM
Waxing Gibbous, 85% visible
Pressure 30.39 in
Visibility 1.5 miles
Clouds Clear
Windchill 31 °F
Dew Point 24 °F
Humidity 76%
Rainfall 0.00 in
Snow Depth Not available.
UV 3 out of 12
Pollen .60 out of 12
Air Quality Not available.
Flu Activity Not available.
METAR KFYG 011515Z AUTO 00000KT 1 1/2SM -SN CLR M03/M03 A3039 RMK AO2

More Conditions Fewer Conditions

Pressure 30.39 in
Visibility 1.5 miles
Clouds Clear
Windchill 31 °F
Dew Point 24 °F
Humidity 76%
Rainfall 0.00 in
Snow Depth Not available.
UV 3 out of 12
Pollen .60 out of 12
Air Quality Not available.
Flu Activity Not available.
METAR KFYG 011515Z AUTO 00000KT 1 1/2SM -SN CLR M03/M03 A3039 RMK AO2

More Conditions Fewer Conditions

10-Day Weather Forecast

Almanac

Astronomy

Mar. 01, 2015 Rise Set
Actual Time
Civil Twilight
Nautical Twilight
Astronomical Twilight
Moon
Length of Visible Light
Length of Day
Tomorrow will be .
, % of the Moon is Illuminated

Today's Extremes

State Highs State Lows

Community

WunderPhotos

Upload Photos

1,801,435 photos uploaded!

WunderBlogs® & News

Nearby

Air Quality

  Air Quality AQ Index Pollutant
Not available.

Snow Depth

Station Depth Elevation

Earthquake Activity

City Distance Mag. Time & Date
Minimum magnitude displayed is 2.5.

Coastal Water Temperatures

Place Temperature

Nearby Weather Stations

Winter Storm Warning
Statement as of 4:25 AM CST on March 01, 2015

... Winter Storm Warning remains in effect until 6 PM CST this
evening...

* timing... snow will gradually diminish today... possibly mixing
with sleet or freezing drizzle for a brief period.

* Accumulations... 5 to 8 inches of snow.

* Winds... west 5 mph or less.

* Impacts... the wintry precipitation will result in hazardous
travel conditions... especially on bridges... overpasses... and
untreated roads. Parking lots and sidewalks will become
slippery as well.

Precautionary/preparedness actions...

A Winter Storm Warning means that 6 inches or more of snow is
expected. The accumulation of snow will make travel extremely
difficult... if not impossible. If travel is necessary... make sure
to exercise caution. Begin your travel with a tank full of
gas... and carry a winter storm kit which includes a shovel...
flashlight... cellphone... and blankets of extra warm clothing.